sensor_id;sensor_type;location;lat;lon;timestamp;pressure;altitude;pressure_sealevel;temperature;humidity
75551;BME280;65071;53.082;18.218;2023-02-15T00:01:30;103000.48;;;-0.43;81.26
75551;BME280;65071;53.082;18.218;2023-02-15T00:03:56;102995.62;;;-0.47;81.26
75551;BME280;65071;53.082;18.218;2023-02-15T00:06:22;102997.45;;;-0.50;81.01
75551;BME280;65071;53.082;18.218;2023-02-15T00:08:48;102999.29;;;-0.54;80.79
75551;BME280;65071;53.082;18.218;2023-02-15T00:11:17;102997.53;;;-0.55;80.93
75551;BME280;65071;53.082;18.218;2023-02-15T00:14:05;102994.48;;;-0.52;80.99
75551;BME280;65071;53.082;18.218;2023-02-15T00:16:32;103000.42;;;-0.49;80.83
75551;BME280;65071;53.082;18.218;2023-02-15T00:18:59;103001.44;;;-0.46;80.66
75551;BME280;65071;53.082;18.218;2023-02-15T00:21:29;103003.66;;;-0.42;80.43
75551;BME280;65071;53.082;18.218;2023-02-15T00:23:57;103006.27;;;-0.39;80.70
75551;BME280;65071;53.082;18.218;2023-02-15T00:26:24;103003.34;;;-0.35;80.64
75551;BME280;65071;53.082;18.218;2023-02-15T00:28:50;103001.29;;;-0.29;80.64
75551;BME280;65071;53.082;18.218;2023-02-15T00:31:19;103001.20;;;-0.25;81.02
75551;BME280;65071;53.082;18.218;2023-02-15T00:33:45;103001.73;;;-0.24;80.63
75551;BME280;65071;53.082;18.218;2023-02-15T00:36:11;102998.40;;;-0.26;80.69
75551;BME280;65071;53.082;18.218;2023-02-15T00:38:38;102998.42;;;-0.27;80.67
75551;BME280;65071;53.082;18.218;2023-02-15T00:41:07;102995.98;;;-0.29;80.15
75551;BME280;65071;53.082;18.218;2023-02-15T00:43:34;102997.50;;;-0.34;80.26
75551;BME280;65071;53.082;18.218;2023-02-15T00:46:02;102997.26;;;-0.40;80.02
75551;BME280;65071;53.082;18.218;2023-02-15T00:48:29;102999.88;;;-0.48;80.24
75551;BME280;65071;53.082;18.218;2023-02-15T00:50:57;102999.29;;;-0.55;80.49
75551;BME280;65071;53.082;18.218;2023-02-15T00:53:26;102999.21;;;-0.60;80.06
75551;BME280;65071;53.082;18.218;2023-02-15T00:55:53;103001.73;;;-0.61;80.24
75551;BME280;65071;53.082;18.218;2023-02-15T00:58:19;103000.59;;;-0.57;80.04
75551;BME280;65071;53.082;18.218;2023-02-15T01:00:46;102996.64;;;-0.55;80.00
75551;BME280;65071;53.082;18.218;2023-02-15T01:03:14;102996.33;;;-0.57;79.97
75551;BME280;65071;53.082;18.218;2023-02-15T01:05:41;102995.81;;;-0.57;80.33
75551;BME280;65071;53.082;18.218;2023-02-15T01:08:08;102992.58;;;-0.55;80.46
75551;BME280;65071;53.082;18.218;2023-02-15T01:10:35;102988.73;;;-0.56;80.65
75551;BME280;65071;53.082;18.218;2023-02-15T01:13:02;102989.06;;;-0.56;80.51
75551;BME280;65071;53.082;18.218;2023-02-15T01:15:29;102984.69;;;-0.58;80.57
75551;BME280;65071;53.082;18.218;2023-02-15T01:17:55;102983.49;;;-0.60;80.68
75551;BME280;65071;53.082;18.218;2023-02-15T01:20:25;102982.67;;;-0.64;80.13
75551;BME280;65071;53.082;18.218;2023-02-15T01:22:51;102981.95;;;-0.62;80.09
75551;BME280;65071;53.082;18.218;2023-02-15T01:25:20;102983.45;;;-0.58;79.97
75551;BME280;65071;53.082;18.218;2023-02-15T01:27:47;102982.40;;;-0.58;80.57
75551;BME280;65071;53.082;18.218;2023-02-15T01:30:14;102979.72;;;-0.56;80.52
75551;BME280;65071;53.082;18.218;2023-02-15T01:32:41;102974.06;;;-0.57;80.65
75551;BME280;65071;53.082;18.218;2023-02-15T01:35:09;102971.57;;;-0.56;81.05
75551;BME280;65071;53.082;18.218;2023-02-15T01:37:35;102970.17;;;-0.56;80.73
75551;BME280;65071;53.082;18.218;2023-02-15T01:40:03;102960.96;;;-0.56;80.99
75551;BME280;65071;53.082;18.218;2023-02-15T01:42:31;102956.19;;;-0.55;81.11
75551;BME280;65071;53.082;18.218;2023-02-15T01:45:24;102959.00;;;-0.55;81.16
75551;BME280;65071;53.082;18.218;2023-02-15T01:50:38;102956.86;;;-0.53;81.22
75551;BME280;65071;53.082;18.218;2023-02-15T01:53:14;102953.14;;;-0.52;81.48
75551;BME280;65071;53.082;18.218;2023-02-15T01:55:44;102952.27;;;-0.52;82.47
75551;BME280;65071;53.082;18.218;2023-02-15T01:58:14;102946.83;;;-0.47;82.05
75551;BME280;65071;53.082;18.218;2023-02-15T02:00:42;102945.85;;;-0.42;81.30
75551;BME280;65071;53.082;18.218;2023-02-15T02:03:10;102947.20;;;-0.38;81.47
75551;BME280;65071;53.082;18.218;2023-02-15T02:05:37;102943.42;;;-0.36;81.81
75551;BME280;65071;53.082;18.218;2023-02-15T02:08:04;102939.88;;;-0.35;81.20
75551;BME280;65071;53.082;18.218;2023-02-15T02:10:32;102940.55;;;-0.33;81.56
75551;BME280;65071;53.082;18.218;2023-02-15T02:13:03;102938.48;;;-0.27;81.52
75551;BME280;65071;53.082;18.218;2023-02-15T02:18:37;102935.92;;;-0.22;81.65
75551;BME280;65071;53.082;18.218;2023-02-15T02:24:17;102933.04;;;-0.20;81.85
75551;BME280;65071;53.082;18.218;2023-02-15T02:38:25;102927.25;;;-0.22;81.72
75551;BME280;65071;53.082;18.218;2023-02-15T02:46:28;102933.35;;;-0.18;81.71
75551;BME280;65071;53.082;18.218;2023-02-15T02:48:56;102929.59;;;-0.08;81.92
75551;BME280;65071;53.082;18.218;2023-02-15T02:51:23;102931.21;;;-0.00;82.32
75551;BME280;65071;53.082;18.218;2023-02-15T02:53:53;102926.83;;;0.06;81.80
75551;BME280;65071;53.082;18.218;2023-02-15T02:56:39;102926.92;;;0.10;81.70
75551;BME280;65071;53.082;18.218;2023-02-15T02:59:26;102927.37;;;0.14;81.87
75551;BME280;65071;53.082;18.218;2023-02-15T03:02:00;102920.95;;;0.16;81.34
75551;BME280;65071;53.082;18.218;2023-02-15T03:04:31;102922.34;;;0.17;81.44
75551;BME280;65071;53.082;18.218;2023-02-15T03:07:03;102922.16;;;0.18;81.55
75551;BME280;65071;53.082;18.218;2023-02-15T03:09:31;102921.27;;;0.17;81.17
75551;BME280;65071;53.082;18.218;2023-02-15T03:12:32;102919.75;;;0.14;80.74
75551;BME280;65071;53.082;18.218;2023-02-15T03:17:33;102917.53;;;0.11;80.45
75551;BME280;65071;53.082;18.218;2023-02-15T03:20:29;102915.23;;;0.10;80.47
75551;BME280;65071;53.082;18.218;2023-02-15T03:23:03;102909.95;;;0.09;81.15
75551;BME280;65071;53.082;18.218;2023-02-15T03:25:56;102902.17;;;0.09;81.31
75551;BME280;65071;53.082;18.218;2023-02-15T03:28:36;102897.09;;;0.07;80.90
75551;BME280;65071;53.082;18.218;2023-02-15T03:31:05;102898.89;;;0.05;81.09
75551;BME280;65071;53.082;18.218;2023-02-15T03:33:35;102898.52;;;0.06;81.30
75551;BME280;65071;53.082;18.218;2023-02-15T03:36:29;102895.71;;;0.06;81.50
75551;BME280;65071;53.082;18.218;2023-02-15T03:41:38;102905.79;;;0.05;81.65
75551;BME280;65071;53.082;18.218;2023-02-15T03:44:12;102905.98;;;0.05;81.99
75551;BME280;65071;53.082;18.218;2023-02-15T03:46:52;102907.96;;;0.03;82.14
75551;BME280;65071;53.082;18.218;2023-02-15T03:49:27;102906.77;;;0.01;82.82
75551;BME280;65071;53.082;18.218;2023-02-15T03:51:57;102907.30;;;0.01;82.72
75551;BME280;65071;53.082;18.218;2023-02-15T03:54:30;102910.67;;;0.00;82.49
75551;BME280;65071;53.082;18.218;2023-02-15T03:57:16;102909.08;;;0.01;82.29
75551;BME280;65071;53.082;18.218;2023-02-15T04:00:19;102904.63;;;0.02;82.34
75551;BME280;65071;53.082;18.218;2023-02-15T04:05:42;102900.96;;;0.08;82.15
75551;BME280;65071;53.082;18.218;2023-02-15T04:08:10;102894.73;;;0.09;82.24
75551;BME280;65071;53.082;18.218;2023-02-15T04:10:36;102889.09;;;0.09;82.78
75551;BME280;65071;53.082;18.218;2023-02-15T04:13:23;102889.20;;;0.12;82.69
75551;BME280;65071;53.082;18.218;2023-02-15T04:15:50;102894.21;;;0.17;82.22
75551;BME280;65071;53.082;18.218;2023-02-15T04:18:42;102893.76;;;0.21;82.31
75551;BME280;65071;53.082;18.218;2023-02-15T04:21:29;102894.19;;;0.26;82.21
75551;BME280;65071;53.082;18.218;2023-02-15T04:24:15;102897.11;;;0.29;82.53
75551;BME280;65071;53.082;18.218;2023-02-15T04:27:00;102889.00;;;0.36;82.13
75551;BME280;65071;53.082;18.218;2023-02-15T04:29:28;102883.55;;;0.41;82.18
75551;BME280;65071;53.082;18.218;2023-02-15T04:31:55;102888.17;;;0.48;81.96
75551;BME280;65071;53.082;18.218;2023-02-15T04:34:22;102890.01;;;0.52;81.90
75551;BME280;65071;53.082;18.218;2023-02-15T04:36:49;102890.68;;;0.54;82.90
75551;BME280;65071;53.082;18.218;2023-02-15T04:39:17;102889.81;;;0.53;82.34
75551;BME280;65071;53.082;18.218;2023-02-15T04:41:44;102890.16;;;0.53;81.75
75551;BME280;65071;53.082;18.218;2023-02-15T04:44:11;102884.38;;;0.51;82.60
75551;BME280;65071;53.082;18.218;2023-02-15T04:46:37;102884.08;;;0.49;82.39
75551;BME280;65071;53.082;18.218;2023-02-15T04:49:03;102880.59;;;0.46;83.96
75551;BME280;65071;53.082;18.218;2023-02-15T04:51:29;102879.30;;;0.41;83.99
75551;BME280;65071;53.082;18.218;2023-02-15T04:53:55;102881.91;;;0.43;82.43
75551;BME280;65071;53.082;18.218;2023-02-15T04:56:23;102875.77;;;0.41;83.10
75551;BME280;65071;53.082;18.218;2023-02-15T04:58:49;102873.14;;;0.40;84.38
75551;BME280;65071;53.082;18.218;2023-02-15T05:01:15;102877.39;;;0.40;83.93
75551;BME280;65071;53.082;18.218;2023-02-15T05:03:41;102880.32;;;0.43;82.62
75551;BME280;65071;53.082;18.218;2023-02-15T05:06:07;102876.73;;;0.46;82.72
75551;BME280;65071;53.082;18.218;2023-02-15T05:08:33;102878.14;;;0.45;83.88
75551;BME280;65071;53.082;18.218;2023-02-15T05:10:59;102881.65;;;0.46;83.82
75551;BME280;65071;53.082;18.218;2023-02-15T05:13:25;102882.82;;;0.49;82.89
75551;BME280;65071;53.082;18.218;2023-02-15T05:15:52;102883.73;;;0.48;84.29
75551;BME280;65071;53.082;18.218;2023-02-15T05:18:20;102880.06;;;0.46;84.53
75551;BME280;65071;53.082;18.218;2023-02-15T05:20:47;102879.33;;;0.47;84.11
75551;BME280;65071;53.082;18.218;2023-02-15T05:23:14;102881.34;;;0.52;83.02
75551;BME280;65071;53.082;18.218;2023-02-15T05:25:40;102881.98;;;0.55;83.20
75551;BME280;65071;53.082;18.218;2023-02-15T05:28:27;102880.90;;;0.55;83.66
75551;BME280;65071;53.082;18.218;2023-02-15T05:31:18;102874.02;;;0.55;83.59
75551;BME280;65071;53.082;18.218;2023-02-15T05:33:45;102880.69;;;0.56;83.39
75551;BME280;65071;53.082;18.218;2023-02-15T05:36:11;102874.48;;;0.57;84.25
75551;BME280;65071;53.082;18.218;2023-02-15T05:38:38;102878.48;;;0.60;84.06
75551;BME280;65071;53.082;18.218;2023-02-15T05:41:08;102879.80;;;0.64;83.41
75551;BME280;65071;53.082;18.218;2023-02-15T05:43:36;102881.34;;;0.66;84.03
75551;BME280;65071;53.082;18.218;2023-02-15T05:46:03;102880.40;;;0.68;83.61
75551;BME280;65071;53.082;18.218;2023-02-15T05:48:29;102878.98;;;0.68;83.79
75551;BME280;65071;53.082;18.218;2023-02-15T05:51:07;102877.38;;;0.69;83.98
75551;BME280;65071;53.082;18.218;2023-02-15T05:53:36;102875.02;;;0.70;83.60
75551;BME280;65071;53.082;18.218;2023-02-15T05:56:04;102874.80;;;0.73;83.71
75551;BME280;65071;53.082;18.218;2023-02-15T05:58:33;102866.44;;;0.74;83.82
75551;BME280;65071;53.082;18.218;2023-02-15T06:00:59;102866.42;;;0.74;83.69
75551;BME280;65071;53.082;18.218;2023-02-15T06:03:32;102872.42;;;0.76;83.86
75551;BME280;65071;53.082;18.218;2023-02-15T06:05:58;102868.87;;;0.77;83.77
75551;BME280;65071;53.082;18.218;2023-02-15T06:08:24;102873.41;;;0.79;83.87
75551;BME280;65071;53.082;18.218;2023-02-15T06:10:50;102872.68;;;0.79;83.44
75551;BME280;65071;53.082;18.218;2023-02-15T06:13:16;102874.74;;;0.82;83.17
75551;BME280;65071;53.082;18.218;2023-02-15T06:15:42;102874.30;;;0.86;83.13
75551;BME280;65071;53.082;18.218;2023-02-15T06:18:08;102875.95;;;0.90;82.86
75551;BME280;65071;53.082;18.218;2023-02-15T06:20:34;102875.40;;;0.90;83.03
75551;BME280;65071;53.082;18.218;2023-02-15T06:23:00;102878.38;;;0.92;82.78
75551;BME280;65071;53.082;18.218;2023-02-15T06:25:26;102881.30;;;0.95;82.96
75551;BME280;65071;53.082;18.218;2023-02-15T06:27:52;102880.58;;;0.97;82.96
75551;BME280;65071;53.082;18.218;2023-02-15T06:30:18;102885.81;;;0.98;82.76
75551;BME280;65071;53.082;18.218;2023-02-15T06:32:44;102882.79;;;0.99;82.80
75551;BME280;65071;53.082;18.218;2023-02-15T06:35:10;102880.08;;;1.01;82.49
75551;BME280;65071;53.082;18.218;2023-02-15T06:37:37;102879.06;;;1.06;82.66
75551;BME280;65071;53.082;18.218;2023-02-15T06:40:03;102879.86;;;1.09;82.58
75551;BME280;65071;53.082;18.218;2023-02-15T06:42:30;102877.39;;;1.10;82.83
75551;BME280;65071;53.082;18.218;2023-02-15T06:44:56;102878.12;;;1.08;83.79
75551;BME280;65071;53.082;18.218;2023-02-15T06:47:22;102874.89;;;1.10;83.35
75551;BME280;65071;53.082;18.218;2023-02-15T06:49:48;102873.73;;;1.13;83.00
75551;BME280;65071;53.082;18.218;2023-02-15T06:52:14;102871.86;;;1.17;83.13
75551;BME280;65071;53.082;18.218;2023-02-15T06:54:40;102870.17;;;1.20;83.32
75551;BME280;65071;53.082;18.218;2023-02-15T06:57:06;102876.29;;;1.23;83.39
75551;BME280;65071;53.082;18.218;2023-02-15T06:59:32;102874.09;;;1.26;83.28
75551;BME280;65071;53.082;18.218;2023-02-15T07:01:58;102870.14;;;1.27;83.56
75551;BME280;65071;53.082;18.218;2023-02-15T07:04:24;102872.39;;;1.30;83.58
75551;BME280;65071;53.082;18.218;2023-02-15T07:06:50;102868.20;;;1.33;82.98
75551;BME280;65071;53.082;18.218;2023-02-15T07:09:16;102865.08;;;1.38;83.17
75551;BME280;65071;53.082;18.218;2023-02-15T07:11:42;102859.25;;;1.43;83.03
75551;BME280;65071;53.082;18.218;2023-02-15T07:14:26;102858.05;;;1.49;83.41
75551;BME280;65071;53.082;18.218;2023-02-15T07:16:53;102853.73;;;1.50;83.71
75551;BME280;65071;53.082;18.218;2023-02-15T07:19:19;102849.69;;;1.49;83.40
75551;BME280;65071;53.082;18.218;2023-02-15T07:21:45;102847.84;;;1.52;83.28
75551;BME280;65071;53.082;18.218;2023-02-15T07:24:11;102842.97;;;1.55;83.77
75551;BME280;65071;53.082;18.218;2023-02-15T07:26:37;102840.91;;;1.52;83.81
75551;BME280;65071;53.082;18.218;2023-02-15T07:29:03;102837.23;;;1.51;83.78
75551;BME280;65071;53.082;18.218;2023-02-15T07:31:30;102838.07;;;1.52;83.67
75551;BME280;65071;53.082;18.218;2023-02-15T07:33:56;102840.81;;;1.55;83.99
75551;BME280;65071;53.082;18.218;2023-02-15T07:36:22;102840.30;;;1.61;84.20
75551;BME280;65071;53.082;18.218;2023-02-15T07:38:48;102838.98;;;1.69;83.70
75551;BME280;65071;53.082;18.218;2023-02-15T07:41:15;102839.91;;;1.79;83.65
75551;BME280;65071;53.082;18.218;2023-02-15T07:43:44;102838.31;;;1.85;83.42
75551;BME280;65071;53.082;18.218;2023-02-15T07:46:15;102841.35;;;1.90;83.92
75551;BME280;65071;53.082;18.218;2023-02-15T07:48:43;102838.98;;;1.98;83.55
75551;BME280;65071;53.082;18.218;2023-02-15T07:51:11;102833.53;;;2.07;83.07
75551;BME280;65071;53.082;18.218;2023-02-15T07:53:38;102827.60;;;2.16;83.06
75551;BME280;65071;53.082;18.218;2023-02-15T07:56:07;102828.95;;;2.23;82.39
75551;BME280;65071;53.082;18.218;2023-02-15T07:58:34;102826.77;;;2.25;82.31
75551;BME280;65071;53.082;18.218;2023-02-15T08:01:35;102823.23;;;2.30;82.64
75551;BME280;65071;53.082;18.218;2023-02-15T08:04:03;102818.92;;;2.36;82.42
75551;BME280;65071;53.082;18.218;2023-02-15T08:06:32;102812.92;;;2.46;82.10
75551;BME280;65071;53.082;18.218;2023-02-15T08:08:58;102812.40;;;2.50;82.16
75551;BME280;65071;53.082;18.218;2023-02-15T08:11:30;102809.76;;;2.55;82.05
75551;BME280;65071;53.082;18.218;2023-02-15T08:18:56;102802.38;;;2.73;82.22
75551;BME280;65071;53.082;18.218;2023-02-15T08:21:25;102794.32;;;2.80;81.36
75551;BME280;65071;53.082;18.218;2023-02-15T08:23:52;102790.53;;;2.86;81.24
75551;BME280;65071;53.082;18.218;2023-02-15T08:26:18;102790.98;;;2.94;81.42
75551;BME280;65071;53.082;18.218;2023-02-15T08:28:45;102789.09;;;3.02;80.94
75551;BME280;65071;53.082;18.218;2023-02-15T08:31:13;102785.51;;;3.08;81.36
75551;BME280;65071;53.082;18.218;2023-02-15T08:33:40;102779.98;;;3.14;81.31
75551;BME280;65071;53.082;18.218;2023-02-15T08:36:13;102780.74;;;3.21;80.94
75551;BME280;65071;53.082;18.218;2023-02-15T08:38:40;102776.89;;;3.29;81.14
75551;BME280;65071;53.082;18.218;2023-02-15T08:41:14;102782.32;;;3.36;80.54
75551;BME280;65071;53.082;18.218;2023-02-15T08:43:42;102780.00;;;3.46;80.48
75551;BME280;65071;53.082;18.218;2023-02-15T08:46:11;102777.69;;;3.55;80.45
75551;BME280;65071;53.082;18.218;2023-02-15T08:48:37;102776.91;;;3.61;80.09
75551;BME280;65071;53.082;18.218;2023-02-15T08:51:10;102771.30;;;3.63;79.95
75551;BME280;65071;53.082;18.218;2023-02-15T08:53:41;102771.48;;;3.68;79.78
75551;BME280;65071;53.082;18.218;2023-02-15T08:56:08;102767.67;;;3.70;79.75
75551;BME280;65071;53.082;18.218;2023-02-15T08:58:34;102768.33;;;3.71;79.93
75551;BME280;65071;53.082;18.218;2023-02-15T09:01:01;102765.26;;;3.72;79.91
75551;BME280;65071;53.082;18.218;2023-02-15T09:03:30;102763.30;;;3.77;80.15
75551;BME280;65071;53.082;18.218;2023-02-15T09:05:58;102759.30;;;3.83;79.57
75551;BME280;65071;53.082;18.218;2023-02-15T09:08:25;102759.81;;;3.92;79.78
75551;BME280;65071;53.082;18.218;2023-02-15T09:10:51;102756.64;;;4.00;79.36
75551;BME280;65071;53.082;18.218;2023-02-15T09:13:17;102758.02;;;4.02;78.80
75551;BME280;65071;53.082;18.218;2023-02-15T09:15:43;102755.68;;;4.06;79.51
75551;BME280;65071;53.082;18.218;2023-02-15T09:18:09;102753.25;;;4.13;79.20
75551;BME280;65071;53.082;18.218;2023-02-15T09:20:37;102752.88;;;4.18;79.01
75551;BME280;65071;53.082;18.218;2023-02-15T09:23:03;102750.77;;;4.21;78.63
75551;BME280;65071;53.082;18.218;2023-02-15T09:25:29;102748.27;;;4.26;78.74
75551;BME280;65071;53.082;18.218;2023-02-15T09:27:55;102747.23;;;4.29;78.85
75551;BME280;65071;53.082;18.218;2023-02-15T09:30:21;102744.36;;;4.34;78.18
75551;BME280;65071;53.082;18.218;2023-02-15T09:32:47;102739.60;;;4.41;78.38
75551;BME280;65071;53.082;18.218;2023-02-15T09:35:13;102744.35;;;4.55;78.18
75551;BME280;65071;53.082;18.218;2023-02-15T09:37:40;102742.79;;;4.58;77.58
75551;BME280;65071;53.082;18.218;2023-02-15T09:40:06;102735.91;;;4.61;77.34
75551;BME280;65071;53.082;18.218;2023-02-15T09:45:42;102737.66;;;4.57;77.18
75551;BME280;65071;53.082;18.218;2023-02-15T09:53:55;102732.73;;;4.48;76.74
75551;BME280;65071;53.082;18.218;2023-02-15T09:57:45;102724.64;;;4.50;77.04
75551;BME280;65071;53.082;18.218;2023-02-15T10:06:00;102724.95;;;4.51;75.40
75551;BME280;65071;53.082;18.218;2023-02-15T10:08:48;102723.81;;;4.48;75.42
75551;BME280;65071;53.082;18.218;2023-02-15T10:14:15;102704.73;;;4.49;75.00
75551;BME280;65071;53.082;18.218;2023-02-15T10:22:25;102701.84;;;4.45;73.77
75551;BME280;65071;53.082;18.218;2023-02-15T10:27:49;102698.72;;;4.47;74.03
75551;BME280;65071;53.082;18.218;2023-02-15T10:30:26;102700.29;;;4.44;73.46
75551;BME280;65071;53.082;18.218;2023-02-15T10:33:02;102696.48;;;4.37;73.10
75551;BME280;65071;53.082;18.218;2023-02-15T10:35:48;102693.58;;;4.39;72.61
75551;BME280;65071;53.082;18.218;2023-02-15T10:41:00;102698.29;;;4.37;72.86
75551;BME280;65071;53.082;18.218;2023-02-15T10:48:54;102693.39;;;4.43;72.74
75551;BME280;65071;53.082;18.218;2023-02-15T10:59:44;102686.77;;;4.31;73.00
75551;BME280;65071;53.082;18.218;2023-02-15T11:07:40;102675.36;;;4.35;73.14
75551;BME280;65071;53.082;18.218;2023-02-15T11:13:04;102663.05;;;4.41;72.96
75551;BME280;65071;53.082;18.218;2023-02-15T11:15:39;102662.23;;;4.43;73.50
75551;BME280;65071;53.082;18.218;2023-02-15T11:23:16;102657.19;;;4.48;72.79
75551;BME280;65071;53.082;18.218;2023-02-15T11:25:54;102655.56;;;4.48;72.81
75551;BME280;65071;53.082;18.218;2023-02-15T11:28:48;102650.10;;;4.47;72.80
75551;BME280;65071;53.082;18.218;2023-02-15T11:31:16;102646.42;;;4.46;73.05
75551;BME280;65071;53.082;18.218;2023-02-15T11:33:51;102641.58;;;4.47;73.14
75551;BME280;65071;53.082;18.218;2023-02-15T11:38:49;102632.59;;;4.52;72.70
75551;BME280;65071;53.082;18.218;2023-02-15T11:41:21;102634.86;;;4.53;72.72
75551;BME280;65071;53.082;18.218;2023-02-15T11:43:58;102630.30;;;4.56;72.87
75551;BME280;65071;53.082;18.218;2023-02-15T11:46:26;102629.48;;;4.57;72.76
75551;BME280;65071;53.082;18.218;2023-02-15T11:48:52;102627.56;;;4.65;72.85
75551;BME280;65071;53.082;18.218;2023-02-15T11:51:21;102622.61;;;4.64;72.24
75551;BME280;65071;53.082;18.218;2023-02-15T11:53:49;102615.91;;;4.66;72.61
75551;BME280;65071;53.082;18.218;2023-02-15T11:56:20;102617.61;;;4.68;72.49
75551;BME280;65071;53.082;18.218;2023-02-15T11:59:30;102612.17;;;4.70;72.43
75551;BME280;65071;53.082;18.218;2023-02-15T12:01:57;102613.90;;;4.71;71.89
75551;BME280;65071;53.082;18.218;2023-02-15T12:04:39;102609.95;;;4.72;72.18
75551;BME280;65071;53.082;18.218;2023-02-15T12:10:10;102603.18;;;4.83;71.62
75551;BME280;65071;53.082;18.218;2023-02-15T12:12:39;102603.10;;;4.88;71.92
75551;BME280;65071;53.082;18.218;2023-02-15T12:15:10;102605.17;;;4.94;72.17
75551;BME280;65071;53.082;18.218;2023-02-15T12:17:48;102601.98;;;5.01;72.01
75551;BME280;65071;53.082;18.218;2023-02-15T12:22:49;102601.27;;;5.23;71.57
75551;BME280;65071;53.082;18.218;2023-02-15T12:25:28;102594.46;;;5.27;70.72
75551;BME280;65071;53.082;18.218;2023-02-15T12:27:55;102591.44;;;5.27;70.59
75551;BME280;65071;53.082;18.218;2023-02-15T12:30:37;102583.86;;;5.25;70.50
75551;BME280;65071;53.082;18.218;2023-02-15T12:33:36;102580.67;;;5.25;70.65
75551;BME280;65071;53.082;18.218;2023-02-15T12:38:37;102575.14;;;5.25;70.88
75551;BME280;65071;53.082;18.218;2023-02-15T12:41:10;102566.90;;;5.29;70.66
75551;BME280;65071;53.082;18.218;2023-02-15T12:43:46;102566.07;;;5.35;70.91
75551;BME280;65071;53.082;18.218;2023-02-15T12:46:26;102567.29;;;5.32;70.88
75551;BME280;65071;53.082;18.218;2023-02-15T12:51:48;102560.02;;;5.31;70.73
75551;BME280;65071;53.082;18.218;2023-02-15T12:56:56;102562.70;;;5.45;70.45
75551;BME280;65071;53.082;18.218;2023-02-15T12:59:23;102552.35;;;5.45;70.16
75551;BME280;65071;53.082;18.218;2023-02-15T13:01:51;102547.16;;;5.45;70.01
75551;BME280;65071;53.082;18.218;2023-02-15T13:04:23;102544.88;;;5.45;69.97
75551;BME280;65071;53.082;18.218;2023-02-15T13:06:52;102537.95;;;5.34;70.10
75551;BME280;65071;53.082;18.218;2023-02-15T13:12:16;102538.02;;;5.50;70.07
75551;BME280;65071;53.082;18.218;2023-02-15T13:14:45;102537.22;;;5.44;70.09
75551;BME280;65071;53.082;18.218;2023-02-15T13:17:13;102532.58;;;5.34;70.16
75551;BME280;65071;53.082;18.218;2023-02-15T13:19:51;102528.77;;;5.24;70.21
75551;BME280;65071;53.082;18.218;2023-02-15T13:22:28;102529.36;;;5.20;70.38
75551;BME280;65071;53.082;18.218;2023-02-15T13:25:00;102526.17;;;5.19;70.53
75551;BME280;65071;53.082;18.218;2023-02-15T13:27:37;102523.52;;;5.22;70.56
75551;BME280;65071;53.082;18.218;2023-02-15T13:30:32;102519.77;;;5.26;70.62
75551;BME280;65071;53.082;18.218;2023-02-15T13:44:17;102515.80;;;5.24;70.77
75551;BME280;65071;53.082;18.218;2023-02-15T13:52:20;102522.89;;;5.35;70.55
75551;BME280;65071;53.082;18.218;2023-02-15T13:54:57;102520.90;;;5.21;70.50
75551;BME280;65071;53.082;18.218;2023-02-15T14:03:34;102505.70;;;5.04;71.30
75551;BME280;65071;53.082;18.218;2023-02-15T14:15:22;102488.33;;;4.98;71.20
75551;BME280;65071;53.082;18.218;2023-02-15T14:23:32;102484.08;;;4.98;71.38
75551;BME280;65071;53.082;18.218;2023-02-15T14:26:21;102488.30;;;4.95;71.53
75551;BME280;65071;53.082;18.218;2023-02-15T14:31:52;102484.13;;;4.75;71.69
75551;BME280;65071;53.082;18.218;2023-02-15T14:34:27;102480.89;;;4.76;71.69
75551;BME280;65071;53.082;18.218;2023-02-15T14:36:57;102483.58;;;4.87;72.02
75551;BME280;65071;53.082;18.218;2023-02-15T14:42:34;102479.51;;;4.79;71.84
75551;BME280;65071;53.082;18.218;2023-02-15T14:47:40;102476.00;;;4.74;71.84
75551;BME280;65071;53.082;18.218;2023-02-15T14:53:31;102473.42;;;4.75;71.66
75551;BME280;65071;53.082;18.218;2023-02-15T15:01:32;102463.77;;;4.54;71.92
75551;BME280;65071;53.082;18.218;2023-02-15T15:04:03;102462.80;;;4.48;72.20
75551;BME280;65071;53.082;18.218;2023-02-15T15:06:32;102465.89;;;4.47;72.59
75551;BME280;65071;53.082;18.218;2023-02-15T15:11:41;102464.71;;;4.26;73.10
75551;BME280;65071;53.082;18.218;2023-02-15T15:14:08;102457.65;;;4.21;73.09
75551;BME280;65071;53.082;18.218;2023-02-15T15:19:11;102454.73;;;4.11;73.36
75551;BME280;65071;53.082;18.218;2023-02-15T15:32:54;102433.85;;;3.94;74.21
75551;BME280;65071;53.082;18.218;2023-02-15T15:41:48;102419.48;;;3.84;74.37
75551;BME280;65071;53.082;18.218;2023-02-15T15:44:58;102421.78;;;3.81;74.77
75551;BME280;65071;53.082;18.218;2023-02-15T15:50:23;102424.55;;;3.71;74.76
75551;BME280;65071;53.082;18.218;2023-02-15T15:52:54;102421.55;;;3.71;74.49
75551;BME280;65071;53.082;18.218;2023-02-15T15:55:23;102420.30;;;3.71;74.47
75551;BME280;65071;53.082;18.218;2023-02-15T15:57:52;102416.27;;;3.69;75.03
75551;BME280;65071;53.082;18.218;2023-02-15T16:03:14;102410.52;;;3.70;75.10
75551;BME280;65071;53.082;18.218;2023-02-15T16:05:40;102410.14;;;3.67;75.45
75551;BME280;65071;53.082;18.218;2023-02-15T16:08:06;102409.47;;;3.66;75.09
75551;BME280;65071;53.082;18.218;2023-02-15T16:10:33;102407.98;;;3.64;75.03
75551;BME280;65071;53.082;18.218;2023-02-15T16:13:00;102400.48;;;3.60;75.70
75551;BME280;65071;53.082;18.218;2023-02-15T16:15:36;102399.63;;;3.59;75.65
75551;BME280;65071;53.082;18.218;2023-02-15T16:18:13;102401.85;;;3.65;75.66
75551;BME280;65071;53.082;18.218;2023-02-15T16:20:41;102397.10;;;3.60;75.81
75551;BME280;65071;53.082;18.218;2023-02-15T16:23:26;102387.98;;;3.57;75.60
75551;BME280;65071;53.082;18.218;2023-02-15T16:26:07;102384.29;;;3.56;75.59